Colo, IA (50056)

9:46 AM CDT on September 19, 2014 (GMT -0500)
Tranquility Base | Change Station
CLOSE
Current Station
Personal Weather Station
Location: Maxwell, IA
Elevation: 902 ft
Nearby Weather Stations

Elev 902 ft 41.89 °N, 93.40 °W | Updated 1 minute ago

Clear
Clear
66.0 °F
Feels Like 66.0 °F
N
4.7
Wind Variable Wind from South

Today
High -- | Low -- °F
--% Chance of Precip.
Yesterday
High -- | Low -- °F
Precip. -- in
6:57 AM 7:15 PM
Waning Crescent, 19% visible
Pressure 29.98 in
Visibility 7.0 miles
Clouds Few 9000 ft
Dew Point 59 °F
Humidity 79%
Rainfall 0.00 in
Snow Depth Not available.
UV 1 out of 12
Pollen 5.60 out of 12
Air Quality Not available.
Flu Activity Not available.
METAR KAMW 191353Z AUTO 15009KT 7SM FEW090 14/13 A2998 RMK AO2 SLP150 T01440133

More Conditions Fewer Conditions

Pressure 29.98 in
Visibility 7.0 miles
Clouds Few 9000 ft
Dew Point 59 °F
Humidity 79%
Rainfall 0.00 in
Snow Depth Not available.
UV 1 out of 12
Pollen 5.60 out of 12
Air Quality Not available.
Flu Activity Not available.
METAR KAMW 191353Z AUTO 15009KT 7SM FEW090 14/13 A2998 RMK AO2 SLP150 T01440133

More Conditions Fewer Conditions

10-Day Weather Forecast

Almanac

Astronomy

Sep. 19, 2014 Rise Set
Actual Time 6:57 AM CDT 7:15 PM CDT
Civil Twilight 6:29 AM CDT 7:43 PM CDT
Nautical Twilight 5:56 AM CDT 8:16 PM CDT
Astronomical Twilight 5:23 AM CDT 8:49 PM CDT
Moon 2:39 AM CDT 4:47 PM CDT
Length of Visible Light 13h 14m
Length of Day
12h 18m
Tomorrow will be 2m 49s shorter.
Waning Crescent, 19% of the Moon is Illuminated
Today
Waning Crescent
Sep 24
New
Oct 1
First Quarter
Oct 8
Full
Oct 15
Last Quarter

Today's Extremes

State Highs State Lows

Community

WunderPhotos

Upload Photos

1,754,630 photos uploaded!

WunderBlogs® & News

Nearby

Snow Depth

Station Depth Elevation
No new snow has been reported.

Earthquake Activity

City Distance Mag. Time & Date
No recent earthquake activity has been reported nearby.
Minimum magnitude displayed is 2.5.

Coastal Water Temperatures

Place Temperature
No Stations Reporting

Nearby Weather Stations